• Join FlightAware (Why Join?)
  • Login
  • US Flag 
10:40PM EDT


 

Airport Tracker/Info


-or-


 

Live Flight TrackerFlight Track Log ✈ UAL5900 ✈ 26-Apr-2013 ✈ KORD - KBNA

Flight Track Log - Related Links

Times and Time Zones

All times are in EDT time to prevent confusion due to time zone crossing. See the UAL5900 flight status page for this flight to view local times or setup timezone preferences in your user account.

Time Position Orientation Groundspeed Altitude Reporting Facility
EDT Latitude Longitude Course Direction KTS MPH feet Rate Location/Type
06:57PM 41.9167 -87.9000 180° South 165 190 3,000  Level Chicago TRACON
06:58PM 41.8667 -87.9000 180° South 216 249 4,400 1,380 Climbing Chicago TRACON
06:59PM 41.8122 -87.8925 174° South 219 252 5,800 2,100 Climbing Chicago Center
07:00PM 41.7306 -87.8889 178° South 244 281 8,700 2,340 Climbing Chicago Center
07:01PM 41.6581 -87.8814 176° South 259 298 10,700 1,740 Climbing Chicago Center
07:02PM 41.5797 -87.8689 173° South 282 325 12,300 1,020 Climbing Chicago Center
07:03PM 41.4894 -87.8542 173° South 321 369 12,900 720 Climbing Chicago Center
07:04PM 41.3881 -87.8389 174° South 358 412 13,900 1,080 Climbing Chicago Center
07:05PM 41.2836 -87.8225 173° South 371 427 15,200 1,200 Climbing Chicago Center
07:06PM 41.1794 -87.8069 174° South 375 432 16,400 1,260 Climbing Chicago Center
07:07PM 41.0525 -87.7875 173° South 381 438 17,900 1,140 Climbing Chicago Center
07:08PM 40.9447 -87.7697 173° South 390 449 18,800 960 Climbing Chicago Center
07:09PM 40.8364 -87.7539 174° South 393 452 20,000 1,200 Climbing Chicago Center
07:10PM 40.7261 -87.7364 173° South 400 460 21,300 1,200 Climbing Chicago Center
07:11PM 40.6142 -87.7208 174° South 405 466 22,500 1,140 Climbing Chicago Center
07:12PM 40.5028 -87.7031 173° South 405 466 23,700 1,260 Climbing Chicago Center
07:13PM 40.3667 -87.6833 174° South 410 472 25,200 1,320 Climbing Chicago Center
07:14PM 40.3131 -87.6758 174° South 409 471 25,800 1,080 Climbing Indianapolis Center
07:15PM 40.1994 -87.6611 174° South 407 468 26,900 540 Climbing Indianapolis Center
07:16PM 40.0847 -87.6431 173° South 411 473 27,000  Climbing Indianapolis Center
07:17PM 39.9422 -87.6217 173° South 433 498 27,000  Level Indianapolis Center
07:18PM 39.8150 -87.6036 174° South 450 518 27,000  Level Indianapolis Center
07:19PM 39.6867 -87.5850 174° South 460 529 27,000  Level Indianapolis Center
07:20PM 39.5567 -87.5656 173° South 467 537 27,000  Level Indianapolis Center
07:21PM 39.4258 -87.5478 174° South 470 541 27,000  Level Indianapolis Center
07:22PM 39.2942 -87.5272 173° South 473 544 27,000  Level Indianapolis Center
07:23PM 39.1611 -87.5089 174° South 477 549 27,000  Level Indianapolis Center
07:24PM 39.0128 -87.4872 174° South 471 542 27,000  Level Indianapolis Center
07:25PM 38.8833 -87.4686 174° South 468 539 27,000 -480 Level Indianapolis Center
07:26PM 38.7569 -87.4506 174° South 458 527 26,100 -1,020 Descending Indianapolis Center
07:27PM 38.6406 -87.4339 174° South 424 488 25,000 -1,080 Descending Indianapolis Center
07:28PM 38.5258 -87.4183 174° South 416 479 24,000 -540 Descending Indianapolis Center
07:29PM 38.4139 -87.4025 174° South 410 472 24,000  Level Indianapolis Center
07:30PM 38.2769 -87.3839 174° South 418 481 24,000  Level Indianapolis Center
07:31PM 38.1572 -87.3675 174° South 433 498 24,000 -240 Level Indianapolis Center
07:33PM 38.0356 -87.3494 173° South 441 507 23,600 -540 Descending Indianapolis Center
07:34PM 37.9161 -87.3325 174° South 433 498 23,000 -300 Descending Indianapolis Center
07:35PM 37.7964 -87.3164 174° South 432 497 23,000  Level Indianapolis Center
07:36PM 37.6567 -87.2956 173° South 437 503 23,000  Level Indianapolis Center
07:37PM 37.5392 -87.2803 174° South 423 487 23,000  Level Indianapolis Center
07:37PM 37.4436 -87.2719 176° South 412 474 23,000  Level Memphis Center
07:38PM 37.3994 -87.2633 171° South 420 483 23,000  Level Memphis Center
07:38PM 37.3536 -87.2572 174° South 407 468 23,000 -900 Level Memphis Center
07:39PM 37.2864 -87.2364 166° South 414 476 22,100 -1,800 Descending Memphis Center
07:39PM 37.2339 -87.2228 168° South 431 496 21,200 -2,040 Descending Memphis Center
07:40PM 37.1708 -87.2019 165° South 419 482 20,100 -1,920 Descending Memphis Center
07:40PM 37.1206 -87.1908 170° South 429 494 19,300 -2,040 Descending Memphis Center
07:41PM 37.0556 -87.1700 166° South 419 482 18,100 -1,680 Descending Memphis Center
07:41PM 37.0031 -87.1542 166° South 419 482 17,600 -1,620 Descending Memphis Center
07:42PM 36.9419 -87.1356 166° South 419 482 16,500 -2,040 Descending Memphis Center
07:42PM 36.8958 -87.1247 169° South 414 476 15,600 -2,040 Descending Memphis Center
07:43PM 36.8328 -87.1011 163° South 409 471 14,500 -1,680 Descending Memphis Center
07:44PM 36.7378 -87.0508 157° South 390 449 13,100 -1,560 Descending Memphis Center
07:45PM 36.6508 -86.9975 154° Southeast 357 411 11,400 -1,500 Descending Memphis Center
07:46PM 36.5789 -86.9539 154° Southeast 338 389 10,100 -1,440 Descending Memphis Center
07:47PM 36.5067 -86.9078 153° Southeast 313 360 8,600 -1,560 Descending Memphis Center
07:48PM 36.4367 -86.8669 155° Southeast 286 329 7,000 -1,320 Descending Memphis Center
07:49PM 36.3731 -86.8258 153° Southeast 268 308 6,000 -540 Descending Memphis Center
07:50PM 36.2989 -86.7828 155° Southeast 263 303 6,000 -120 Level Memphis Center
07:51PM 36.2311 -86.7522 160° South 263 303 5,800 -540 Descending Memphis Center
07:52PM 36.1714 -86.7728 196° South 222 255 5,000 -600 Descending Memphis Center
07:53PM 36.1219 -86.7931 198° South 222 255 4,700 -540 Descending Memphis Center
07:54PM 36.0664 -86.8211 202° Southwest 222 255 4,000 -900 Descending Memphis Center
07:55PM 36.0342 -86.7867 139° Southeast 174 200 3,000 -900 Descending Memphis Center
07:56PM 36.0469 -86.7269 75° East 134 154 2,200 -780 Descending Memphis Center
07:57PM 36.0817 -86.7025 30° Northeast 140 161 1,500 -720 Descending Memphis Center
07:58PM 36.1125 -86.6856 24° Northeast 128 147 800 3,720 Descending Memphis Center
07:59PM 36.1450 -86.6583 34° Northeast 128 147 9,000 8,160 Climbing Memphis Center
08:01PM 36.1167 -86.6667 219° Southwest  Level FlightAware Approximate
08:08PM 36.1245 -86.6782 219° Southwest  Level Estimated
08:09PM 36.1245 -86.6782 219° Southwest  Level Estimated
08:10PM 36.1245 -86.6782 219° Southwest  Level Estimated
08:11PM 36.1245 -86.6782 219° Southwest  Level Estimated
08:12PM 36.1245 -86.6782 219° Southwest  Level Estimated
08:13PM 36.1245 -86.6782 219° Southwest  Level Estimated